Time;durP1;ratioP1;P1;durP2;ratioP2;P2;SDS_P1;SDS_P2;PMS_P1;PMS_P2;Temp;Humidity;BMP_temperature;BMP_pressure;BME280_temperature;BME280_humidity;BME280_pressure;Samples;Min_cycle;Max_cycle;Signal;HPM_P1;HPM_P2
2022/09/02 00:01:22;;;;;;;4.00;1.00;;;;;;;19.50;36.62;98773.91;4487808;31;20106;-81
2022/09/02 00:03:48;;;;;;;2.30;0.90;;;;;;;19.29;37.41;98782.06;4502229;31;20126;-81
2022/09/02 00:06:14;;;;;;;2.45;0.80;;;;;;;19.51;36.92;98770.28;4487636;31;20126;-81
2022/09/02 00:08:41;;;;;;;3.97;0.90;;;;;;;19.51;36.07;98766.72;4487751;31;20084;-81
2022/09/02 00:11:08;;;;;;;3.75;1.15;;;;;;;19.34;36.93;98779.81;4487722;31;20076;-81
2022/09/02 00:13:35;;;;;;;3.83;1.00;;;;;;;19.43;35.93;98778.12;4487717;31;20107;-81
2022/09/02 00:16:01;;;;;;;2.60;0.80;;;;;;;19.28;36.41;98775.03;4502298;31;20088;-81
2022/09/02 00:18:28;;;;;;;2.90;0.90;;;;;;;19.12;36.72;98778.22;4502313;31;20084;-80
2022/09/02 00:20:54;;;;;;;2.65;0.90;;;;;;;19.63;35.92;98768.28;4474522;31;20112;-80
2022/09/02 00:23:20;;;;;;;1.73;0.80;;;;;;;19.51;35.94;98769.41;4501916;31;20084;-81
2022/09/02 00:25:45;;;;;;;1.70;0.77;;;;;;;19.79;35.15;98771.25;4501974;31;20125;-81
2022/09/02 00:28:12;;;;;;;2.60;0.75;;;;;;;19.62;35.55;98763.91;4487642;31;20139;-80
2022/09/02 00:30:39;;;;;;;2.37;0.80;;;;;;;19.84;35.08;98770.84;4502210;31;20087;-81
2022/09/02 00:33:04;;;;;;;2.40;0.93;;;;;;;19.79;35.11;98767.75;4487776;31;20184;-81
2022/09/02 00:35:30;;;;;;;2.78;0.90;;;;;;;19.62;34.98;98766.59;4502007;31;20436;-80
2022/09/02 00:37:56;;;;;;;3.47;1.00;;;;;;;19.61;35.22;98768.44;4487407;31;20131;-81
2022/09/02 00:40:22;;;;;;;3.50;0.90;;;;;;;19.20;35.94;98764.19;4487395;31;20104;-80
2022/09/02 00:42:48;;;;;;;3.80;0.82;;;;;;;19.10;36.35;98758.84;4501599;31;20115;-80
2022/09/02 00:45:14;;;;;;;4.47;0.80;;;;;;;19.35;36.07;98765.47;4501654;31;20105;-80
2022/09/02 00:47:39;;;;;;;3.12;1.20;;;;;;;19.45;35.80;98755.66;4487209;31;20110;-80
2022/09/02 00:50:08;;;;;;;3.45;0.85;;;;;;;19.38;35.85;98756.34;4501444;31;20102;-80
2022/09/02 00:52:55;;;;;;;5.35;1.00;;;;;;;19.33;35.93;98754.06;4487300;31;20138;-79
2022/09/02 00:55:27;;;;;;;2.03;0.73;;;;;;;19.21;36.26;98756.03;4487338;31;20364;-80
2022/09/02 00:57:59;;;;;;;2.65;1.00;;;;;;;19.38;35.72;98749.16;4487423;31;20088;-81
2022/09/02 01:00:30;;;;;;;2.28;0.77;;;;;;;19.68;35.16;98765.19;4474008;31;20088;-80
2022/09/02 01:02:58;;;;;;;2.92;0.75;;;;;;;19.53;35.37;98754.94;4487005;31;20408;-81
2022/09/02 01:05:28;;;;;;;1.48;0.70;;;;;;;19.72;35.13;98758.59;4487042;31;20543;-81
2022/09/02 01:07:55;;;;;;;3.60;0.90;;;;;;;19.84;34.79;98752.13;4487089;31;20171;-81
2022/09/02 01:10:27;;;;;;;3.22;1.10;;;;;;;19.81;34.64;98750.56;4486962;31;20096;-80
2022/09/02 01:12:57;;;;;;;3.58;0.90;;;;;;;19.77;34.85;98751.00;4486862;31;20101;-80
2022/09/02 01:15:23;;;;;;;4.00;0.98;;;;;;;19.76;34.25;98746.62;4473764;31;20092;-80
2022/09/02 01:17:49;;;;;;;2.60;1.00;;;;;;;19.69;34.41;98754.34;4487516;31;20447;-80
2022/09/02 01:20:17;;;;;;;4.53;1.10;;;;;;;19.73;34.45;98747.78;4489139;31;20132;-81
2022/09/02 01:22:44;;;;;;;2.83;0.80;;;;;;;19.65;34.94;98755.62;4489324;31;20456;-80
2022/09/02 01:25:14;;;;;;;3.53;0.90;;;;;;;19.89;34.45;98754.34;4503533;31;20108;-80
2022/09/02 01:27:40;;;;;;;3.03;0.95;;;;;;;19.29;35.09;98751.84;4503419;31;20449;-82
2022/09/02 01:30:08;;;;;;;2.90;0.70;;;;;;;19.57;34.84;98755.50;4489395;31;20106;-81
2022/09/02 01:32:33;;;;;;;4.70;0.98;;;;;;;19.80;34.28;98758.75;4503458;31;20356;-82
2022/09/02 01:34:59;;;;;;;4.30;0.93;;;;;;;19.80;34.37;98746.22;4503395;31;20118;-82
2022/09/02 01:37:25;;;;;;;3.70;0.80;;;;;;;19.66;34.35;98751.97;4503433;31;20112;-81
2022/09/02 01:39:51;;;;;;;1.65;0.80;;;;;;;19.75;34.57;98751.13;4488960;31;20163;-82
2022/09/02 01:42:18;;;;;;;2.12;0.85;;;;;;;19.56;34.85;98753.81;4503654;31;20634;-81
2022/09/02 01:44:44;;;;;;;3.35;0.80;;;;;;;19.37;34.78;98747.50;4475873;31;20156;-81
2022/09/02 01:47:14;;;;;;;5.00;0.85;;;;;;;19.57;34.50;98742.16;4489073;31;20092;-81
2022/09/02 01:49:41;;;;;;;3.37;0.90;;;;;;;19.61;34.55;98747.06;4503387;31;20653;-81
2022/09/02 01:52:07;;;;;;;3.50;1.00;;;;;;;19.19;35.48;98751.84;4488961;31;20135;-81
2022/09/02 01:54:32;;;;;;;3.30;0.82;;;;;;;19.71;34.57;98748.88;4488737;31;20100;-80
2022/09/02 01:56:58;;;;;;;4.50;1.00;;;;;;;19.54;35.10;98748.59;4503283;31;20080;-81
2022/09/02 01:59:23;;;;;;;2.55;0.98;;;;;;;19.66;34.56;98743.94;4503313;31;20103;-81
2022/09/02 02:01:49;;;;;;;3.50;0.88;;;;;;;19.82;34.14;98740.72;4503193;31;20118;-81
2022/09/02 02:04:14;;;;;;;3.60;0.85;;;;;;;19.45;34.74;98739.62;4488739;31;20099;-81
2022/09/02 02:06:41;;;;;;;2.50;0.88;;;;;;;19.35;35.09;98738.75;4503266;31;20111;-81
2022/09/02 02:09:07;;;;;;;3.33;0.80;;;;;;;19.29;35.52;98736.66;4475703;31;20467;-80
2022/09/02 02:11:33;;;;;;;2.80;0.77;;;;;;;19.36;35.67;98736.94;4489122;31;20114;-80
2022/09/02 02:13:58;;;;;;;3.08;0.77;;;;;;;19.57;35.77;98732.28;4503384;31;20100;-81
2022/09/02 02:16:24;;;;;;;4.40;1.00;;;;;;;19.70;34.97;98734.69;4503374;31;20393;-81
2022/09/02 02:18:49;;;;;;;3.35;1.00;;;;;;;19.75;34.81;98737.78;4489101;31;20079;-81
2022/09/02 02:21:15;;;;;;;2.83;0.70;;;;;;;19.46;35.41;98732.44;4503276;31;20145;-81
2022/09/02 02:23:40;;;;;;;3.58;0.90;;;;;;;19.63;35.01;98734.38;4489090;31;20144;-81
2022/09/02 02:26:07;;;;;;;2.87;0.80;;;;;;;19.90;34.31;98730.16;4503350;31;20144;-81
2022/09/02 02:28:32;;;;;;;2.55;0.80;;;;;;;19.65;34.66;98735.09;4503172;31;20523;-81
2022/09/02 02:30:59;;;;;;;3.97;1.00;;;;;;;19.62;34.94;98737.19;4488802;31;20115;-81
2022/09/02 02:33:27;;;;;;;3.27;0.87;;;;;;;19.52;34.62;98731.03;4488945;31;20130;-81
2022/09/02 02:35:54;;;;;;;3.08;0.90;;;;;;;19.63;34.77;98728.22;4502970;31;20175;-81
2022/09/02 02:38:19;;;;;;;4.28;0.88;;;;;;;19.48;35.40;98733.13;4503159;31;20076;-81
2022/09/02 02:40:45;;;;;;;2.12;0.80;;;;;;;19.46;34.98;98732.44;4502955;31;20118;-81
2022/09/02 02:43:10;;;;;;;3.45;0.80;;;;;;;19.11;35.85;98739.19;4503076;31;20117;-81
2022/09/02 02:45:36;;;;;;;4.22;0.88;;;;;;;19.15;35.69;98724.56;4488699;31;20092;-80
2022/09/02 02:48:02;;;;;;;2.85;0.80;;;;;;;19.32;35.27;98722.19;4502877;31;20084;-80
2022/09/02 02:50:27;;;;;;;2.80;0.80;;;;;;;19.37;35.46;98720.78;4475354;31;20153;-79
2022/09/02 02:52:53;;;;;;;6.50;1.00;;;;;;;19.37;35.12;98728.81;4502951;31;20115;-79
2022/09/02 02:55:20;;;;;;;1.98;0.80;;;;;;;18.91;36.18;98729.44;4488349;31;20462;-80
2022/09/02 02:57:45;;;;;;;3.90;1.02;;;;;;;19.04;35.81;98725.56;4488606;31;20096;-80
2022/09/02 03:00:31;;;;;;;2.30;0.77;;;;;;;19.28;35.51;98724.28;4502853;31;20397;-80
2022/09/02 03:03:02;;;;;;;2.40;0.90;;;;;;;19.35;35.29;98722.72;4488625;31;20134;-81
2022/09/02 03:05:28;;;;;;;3.80;0.98;;;;;;;19.10;35.93;98731.31;4502848;31;20111;-80
2022/09/02 03:07:53;;;;;;;3.60;0.80;;;;;;;18.42;37.10;98737.31;4502728;31;20103;-81
2022/09/02 03:10:20;;;;;;;2.50;1.00;;;;;;;19.01;36.29;98725.81;4502781;31;20112;-80
2022/09/02 03:12:46;;;;;;;2.17;0.88;;;;;;;19.28;35.42;98718.94;4488530;31;20120;-81
2022/09/02 03:15:15;;;;;;;4.22;1.05;;;;;;;19.11;35.96;98716.97;4488316;31;20162;-80
2022/09/02 03:17:44;;;;;;;4.72;1.00;;;;;;;18.88;36.09;98708.38;4475372;31;20589;-80
2022/09/02 03:20:10;;;;;;;2.95;1.00;;;;;;;19.02;35.79;98705.31;4502995;31;20168;-80
2022/09/02 03:22:39;;;;;;;4.22;0.85;;;;;;;19.11;35.96;98712.47;4502881;31;20100;-80
2022/09/02 03:25:08;;;;;;;2.90;0.82;;;;;;;18.91;36.24;98716.09;4489039;31;20121;-81
2022/09/02 03:27:35;;;;;;;3.30;0.80;;;;;;;18.58;36.69;98710.97;4502685;31;20122;-80
2022/09/02 03:30:01;;;;;;;3.87;1.20;;;;;;;18.80;36.32;98714.41;4488304;31;20120;-81
2022/09/02 03:32:26;;;;;;;4.85;0.90;;;;;;;18.55;37.15;98718.41;4502621;31;20096;-80
2022/09/02 03:34:53;;;;;;;3.45;0.90;;;;;;;18.78;36.29;98716.34;4502495;31;20084;-80
2022/09/02 03:37:19;;;;;;;3.37;0.82;;;;;;;18.56;36.95;98720.06;4488155;31;20113;-80
2022/09/02 03:39:45;;;;;;;3.33;0.98;;;;;;;18.34;37.30;98718.47;4502460;31;20126;-80
2022/09/02 03:42:10;;;;;;;3.37;0.88;;;;;;;18.52;36.81;98716.81;4501985;31;20092;-80
2022/09/02 03:44:35;;;;;;;3.30;0.82;;;;;;;18.64;36.80;98717.59;4488148;31;20399;-80
2022/09/02 03:47:01;;;;;;;3.05;0.80;;;;;;;18.57;36.80;98719.09;4488158;31;20130;-80
2022/09/02 03:49:27;;;;;;;2.55;0.73;;;;;;;18.38;37.22;98725.22;4502472;31;20242;-79
2022/09/02 03:51:53;;;;;;;1.30;0.70;;;;;;;18.36;37.45;98719.19;4488224;31;20394;-80
2022/09/02 03:54:18;;;;;;;1.25;0.65;;;;;;;18.45;37.17;98719.22;4501953;31;20131;-81
2022/09/02 03:56:44;;;;;;;2.28;0.70;;;;;;;18.28;37.55;98717.19;4487996;31;20114;-80
2022/09/02 03:59:09;;;;;;;3.37;0.80;;;;;;;17.81;38.18;98722.09;4502321;31;20443;-80
2022/09/02 04:01:35;;;;;;;2.53;0.80;;;;;;;18.05;37.81;98719.19;4487996;31;20100;-80
2022/09/02 04:04:01;;;;;;;2.90;0.90;;;;;;;18.01;38.19;98726.59;4502200;31;20080;-80
2022/09/02 04:06:26;;;;;;;7.90;0.93;;;;;;;18.41;37.24;98719.63;4488012;31;20076;-80
2022/09/02 04:08:52;;;;;;;2.25;0.77;;;;;;;18.39;37.53;98729.59;4502161;31;20145;-81
2022/09/02 04:11:20;;;;;;;3.75;1.00;;;;;;;18.11;38.18;98731.13;4502085;31;20092;-80
2022/09/02 04:13:46;;;;;;;2.37;0.62;;;;;;;18.62;37.16;98728.41;4487700;31;20096;-81
2022/09/02 04:16:14;;;;;;;6.35;1.00;;;;;;;18.74;36.80;98721.13;4502059;31;20574;-80
2022/09/02 04:18:40;;;;;;;3.12;0.93;;;;;;;18.71;36.74;98720.53;4487558;31;20122;-80
2022/09/02 04:21:06;;;;;;;2.97;0.95;;;;;;;18.60;36.79;98722.34;4502092;31;20362;-81
2022/09/02 04:23:32;;;;;;;4.18;1.05;;;;;;;18.64;36.60;98725.59;4487616;31;20080;-80
2022/09/02 04:26:02;;;;;;;1.95;0.60;;;;;;;18.59;36.50;98723.31;4501866;31;20088;-80
2022/09/02 04:28:27;;;;;;;2.47;0.75;;;;;;;18.86;36.60;98729.88;4487583;31;20126;-81
2022/09/02 04:30:53;;;;;;;2.83;0.82;;;;;;;18.92;36.42;98728.47;4487396;31;20132;-80
2022/09/02 04:33:18;;;;;;;3.70;0.90;;;;;;;18.52;37.09;98732.84;4474340;31;20488;-81
2022/09/02 04:35:45;;;;;;;8.10;1.05;;;;;;;18.63;37.40;98729.22;4501794;31;20103;-80
2022/09/02 04:38:11;;;;;;;1.98;0.80;;;;;;;18.55;37.54;98721.91;4501773;31;20104;-79
2022/09/02 04:40:42;;;;;;;4.43;0.80;;;;;;;18.28;37.84;98719.84;4501680;31;20091;-80
2022/09/02 04:43:07;;;;;;;4.40;0.90;;;;;;;18.43;37.57;98731.84;4487384;31;20136;-79
2022/09/02 04:45:33;;;;;;;2.30;0.90;;;;;;;18.45;37.06;98731.72;4487329;31;20100;-81
2022/09/02 04:47:58;;;;;;;1.98;0.73;;;;;;;18.72;36.93;98727.56;4501567;31;20116;-80
2022/09/02 04:50:24;;;;;;;3.05;0.73;;;;;;;18.65;37.36;98735.28;4501527;31;20474;-77
2022/09/02 04:52:49;;;;;;;4.53;0.70;;;;;;;18.82;36.64;98726.63;4487941;31;20144;-80
2022/09/02 04:55:15;;;;;;;2.17;0.70;;;;;;;18.94;36.34;98721.19;4503549;31;20127;-79
2022/09/02 04:57:41;;;;;;;4.12;0.90;;;;;;;18.43;37.33;98734.50;4503706;31;20083;-80
2022/09/02 05:00:08;;;;;;;2.95;0.70;;;;;;;18.61;37.18;98729.34;4489494;31;20092;-79
2022/09/02 05:02:33;;;;;;;3.62;1.10;;;;;;;18.91;36.59;98724.97;4489156;31;20138;-79
2022/09/02 05:04:59;;;;;;;4.28;0.80;;;;;;;19.27;36.28;98730.59;4503680;31;20084;-78
2022/09/02 05:07:24;;;;;;;4.32;0.95;;;;;;;18.96;36.33;98733.38;4489122;31;20448;-78
2022/09/02 05:09:55;;;;;;;1.75;0.70;;;;;;;18.83;36.63;98736.34;4489376;31;20448;-76
2022/09/02 05:12:21;;;;;;;1.27;0.73;;;;;;;18.90;36.92;98735.78;4489307;31;20175;-79
2022/09/02 05:14:47;;;;;;;3.03;0.93;;;;;;;19.10;36.01;98731.31;4489269;31;20424;-78
2022/09/02 05:17:14;;;;;;;2.65;0.80;;;;;;;19.34;35.84;98738.91;4489387;31;20108;-79
2022/09/02 05:19:39;;;;;;;2.67;0.90;;;;;;;19.29;35.91;98735.81;4476329;31;20519;-79
2022/09/02 05:22:05;;;;;;;2.25;0.80;;;;;;;19.51;35.56;98734.66;4503607;31;20079;-78
2022/09/02 05:24:30;;;;;;;1.62;0.70;;;;;;;19.62;35.35;98730.03;4475950;31;20110;-79
2022/09/02 05:26:56;;;;;;;5.70;0.95;;;;;;;19.40;35.64;98731.16;4503390;31;20114;-77
2022/09/02 05:29:22;;;;;;;3.17;0.77;;;;;;;19.63;35.51;98734.38;4503498;31;20089;-79
2022/09/02 05:31:48;;;;;;;3.28;0.90;;;;;;;19.64;34.86;98733.41;4496322;31;20166;-79
2022/09/02 05:34:14;;;;;;;2.95;0.75;;;;;;;19.69;34.76;98732.12;4495098;31;20084;-80
2022/09/02 05:36:40;;;;;;;3.97;0.80;;;;;;;19.52;35.57;98737.22;4482059;31;20131;-79
2022/09/02 05:39:05;;;;;;;3.67;0.80;;;;;;;19.55;35.48;98726.25;4479125;31;20101;-80
2022/09/02 05:41:31;;;;;;;1.92;0.80;;;;;;;19.89;34.85;98741.81;4495783;31;20144;-79
2022/09/02 05:44:00;;;;;;;6.32;1.00;;;;;;;20.09;34.95;98734.59;4495079;31;20120;-80
2022/09/02 05:46:26;;;;;;;2.90;0.80;;;;;;;20.10;34.20;98733.59;4479890;31;20130;-80
2022/09/02 05:49:06;;;;;;;3.47;0.90;;;;;;;19.81;34.67;98736.34;4495787;31;20125;-79
2022/09/02 05:51:52;;;;;;;4.28;1.00;;;;;;;19.86;34.94;98733.25;4480724;31;20100;-80
2022/09/02 05:54:19;;;;;;;2.95;0.93;;;;;;;20.06;35.00;98734.06;4480363;31;20072;-79
2022/09/02 05:56:47;;;;;;;2.85;0.85;;;;;;;20.30;34.15;98734.41;4489015;31;20371;-80
2022/09/02 05:59:12;;;;;;;;;;;;;;;20.18;34.84;98733.72;4479026;31;20092;-81
2022/09/02 06:01:38;;;;;;;2.17;0.70;;;;;;;19.81;35.20;98734.53;4487737;32;20028;-81
2022/09/02 06:04:04;;;;;;;4.32;0.80;;;;;;;20.08;34.32;98737.41;4487183;32;20455;-79
2022/09/02 06:06:31;;;;;;;3.47;0.80;;;;;;;20.19;35.12;98732.72;4487660;32;20130;-80
2022/09/02 06:08:58;;;;;;;3.00;0.90;;;;;;;20.42;34.69;98733.22;4473410;32;20470;-79
2022/09/02 06:11:24;;;;;;;2.90;0.73;;;;;;;20.33;35.11;98739.44;4487746;32;20149;-79
2022/09/02 06:13:50;;;;;;;6.85;1.08;;;;;;;20.35;34.82;98741.97;4487548;32;20115;-79
2022/09/02 06:16:19;;;;;;;2.85;0.80;;;;;;;20.66;34.63;98736.37;4474798;31;20130;-78
2022/09/02 06:18:46;;;;;;;3.90;0.90;;;;;;;20.75;34.73;98733.63;4496988;31;20100;-87
2022/09/02 06:21:12;;;;;;;2.90;0.90;;;;;;;20.91;34.12;98732.97;4481332;31;20530;-80
2022/09/02 06:23:39;;;;;;;4.97;0.90;;;;;;;20.86;33.68;98727.25;4490962;31;20091;-80
2022/09/02 06:26:05;;;;;;;2.83;0.82;;;;;;;21.26;33.28;98735.81;4485494;32;20100;-78
2022/09/02 06:28:31;;;;;;;5.60;0.90;;;;;;;20.70;34.17;98745.78;4487113;32;20122;-80
2022/09/02 06:30:57;;;;;;;4.15;0.90;;;;;;;21.09;33.82;98737.50;4495702;31;20467;-76
2022/09/02 06:33:22;;;;;;;3.65;0.95;;;;;;;20.84;33.58;98734.56;4485712;32;20436;-80
2022/09/02 06:35:48;;;;;;;4.45;0.80;;;;;;;20.91;33.09;98735.63;4488109;31;20093;-81
2022/09/02 06:38:14;;;;;;;5.37;0.90;;;;;;;20.94;33.67;98731.84;4485916;32;20101;-81
2022/09/02 06:40:51;;;;;;;4.22;0.85;;;;;;;21.26;33.94;98733.97;4485815;32;20072;-82
2022/09/02 06:43:16;;;;;;;3.12;0.90;;;;;;;21.51;32.88;98737.75;4485843;32;20080;-80
2022/09/02 06:45:42;;;;;;;3.47;0.88;;;;;;;21.22;33.44;98751.34;4485812;32;20081;-80
2022/09/02 06:48:08;;;;;;;3.72;1.10;;;;;;;21.07;33.34;98740.31;4486170;32;20115;-79
2022/09/02 06:50:38;;;;;;;1.95;0.80;;;;;;;20.83;33.62;98735.56;4487081;31;20096;-79
2022/09/02 06:53:06;;;;;;;5.07;0.95;;;;;;;21.13;33.99;98741.56;4485783;32;20088;-80
2022/09/02 06:55:35;;;;;;;3.87;1.00;;;;;;;21.12;34.13;98743.41;4485598;32;20097;-79
2022/09/02 06:58:00;;;;;;;5.90;0.95;;;;;;;21.16;33.70;98743.94;4472650;32;20108;-78
2022/09/02 07:00:26;;;;;;;3.00;1.00;;;;;;;21.01;34.07;98744.47;4492103;31;20376;-79
2022/09/02 07:05:08;;;;;;;5.10;1.30;;;;;;;20.53;34.92;98745.56;4479848;31;20131;-80
2022/09/02 07:05:37;;;;;;;3.70;0.80;;;;;;;20.99;34.42;98738.41;4488962;31;20092;-79
2022/09/02 07:08:02;;;;;;;3.33;0.95;;;;;;;21.26;33.95;98733.97;4487213;31;20399;-79
2022/09/02 07:10:28;;;;;;;4.18;0.93;;;;;;;21.31;33.84;98739.72;4486969;31;20428;-80
2022/09/02 07:12:53;;;;;;;2.75;0.90;;;;;;;21.04;34.23;98745.16;4472694;32;20088;-77
2022/09/02 07:15:19;;;;;;;2.50;0.90;;;;;;;21.04;34.39;98742.50;4486164;31;20123;-82
2022/09/02 07:17:44;;;;;;;5.03;1.00;;;;;;;20.68;34.85;98745.91;4496132;31;20117;-80
2022/09/02 07:20:10;;;;;;;4.75;1.10;;;;;;;20.70;35.18;98751.97;4479389;31;20108;-80
2022/09/02 07:22:37;;;;;;;2.92;1.00;;;;;;;21.14;33.73;98741.41;4495879;31;20088;-82
2022/09/02 07:25:03;;;;;;;2.50;0.90;;;;;;;21.09;34.36;98746.38;4486568;31;20095;-82
2022/09/02 07:27:29;;;;;;;5.07;1.00;;;;;;;21.02;34.64;98743.47;4501494;31;20084;-82
2022/09/02 07:29:55;;;;;;;4.72;1.00;;;;;;;20.62;35.21;98747.34;4501965;31;20464;-82
2022/09/02 07:32:20;;;;;;;3.08;1.02;;;;;;;21.17;34.39;98735.75;4486189;31;20168;-82
2022/09/02 07:34:46;;;;;;;4.37;0.93;;;;;;;21.09;34.92;98743.69;4501549;31;20095;-83
2022/09/02 07:37:11;;;;;;;3.35;1.20;;;;;;;21.29;34.67;98744.41;4502013;31;20118;-82
2022/09/02 07:39:37;;;;;;;4.22;1.00;;;;;;;21.54;33.49;98741.97;4502449;31;20080;-82
2022/09/02 07:42:03;;;;;;;3.45;0.95;;;;;;;21.21;34.58;98736.28;4488380;31;20097;-82
2022/09/02 07:44:30;;;;;;;3.10;1.08;;;;;;;21.31;34.15;98731.69;4502549;31;20160;-83
2022/09/02 07:46:56;;;;;;;3.60;1.20;;;;;;;21.40;34.55;98736.13;4502675;31;20097;-82
2022/09/02 07:49:21;;;;;;;3.58;1.05;;;;;;;21.68;33.57;98741.41;4502467;31;20347;-83
2022/09/02 07:51:48;;;;;;;2.35;1.00;;;;;;;21.64;33.78;98744.56;4502550;31;20087;-82
2022/09/02 07:54:15;;;;;;;5.80;1.25;;;;;;;21.64;33.63;98733.84;4488110;31;20180;-82
2022/09/02 07:56:42;;;;;;;4.03;1.08;;;;;;;21.72;34.44;98739.25;4488196;31;20123;-83
2022/09/02 07:59:07;;;;;;;3.83;0.90;;;;;;;21.70;33.98;98743.94;4502417;31;20470;-82
2022/09/02 08:01:33;;;;;;;4.30;1.12;;;;;;;21.66;33.87;98731.84;4487994;31;20108;-82
2022/09/02 08:03:59;;;;;;;1.90;0.82;;;;;;;22.03;33.49;98730.75;4488134;31;20150;-83
2022/09/02 08:06:26;;;;;;;2.62;1.10;;;;;;;22.11;33.47;98725.44;4502651;31;20127;-83
2022/09/02 08:08:52;;;;;;;5.07;1.12;;;;;;;22.36;33.25;98729.13;4502627;31;20568;-83
2022/09/02 08:11:18;;;;;;;5.85;1.17;;;;;;;22.56;33.26;98733.25;4487949;31;20087;-83
2022/09/02 08:13:44;;;;;;;3.92;1.10;;;;;;;22.07;33.14;98730.28;4487937;31;20413;-83
2022/09/02 08:16:10;;;;;;;4.68;1.20;;;;;;;22.07;33.61;98737.50;4488107;31;20095;-83
2022/09/02 08:18:35;;;;;;;4.45;1.10;;;;;;;22.34;33.24;98739.19;4502203;31;20110;-82
2022/09/02 08:21:01;;;;;;;4.05;1.20;;;;;;;22.21;33.63;98739.56;4501997;31;20442;-83
2022/09/02 08:23:26;;;;;;;4.43;1.20;;;;;;;21.79;34.66;98741.16;4502227;31;20093;-83
2022/09/02 08:25:52;;;;;;;3.03;1.00;;;;;;;22.16;33.99;98744.59;4502305;31;20099;-82
2022/09/02 08:28:17;;;;;;;4.07;1.10;;;;;;;22.56;33.24;98729.69;4489599;31;20104;-82
2022/09/02 08:30:43;;;;;;;5.55;1.15;;;;;;;22.02;34.16;98737.97;4504024;31;20137;-82
2022/09/02 08:33:09;;;;;;;2.67;1.02;;;;;;;22.21;33.61;98733.38;4489723;31;20127;-82
2022/09/02 08:35:34;;;;;;;5.35;1.30;;;;;;;22.08;34.52;98739.16;4503899;31;20406;-82
2022/09/02 08:38:00;;;;;;;4.45;1.35;;;;;;;22.19;34.19;98746.94;4489530;31;20084;-82
2022/09/02 08:40:41;;;;;;;3.87;1.35;;;;;;;22.35;33.36;98732.81;4489442;31;20116;-82
2022/09/02 08:43:23;;;;;;;5.20;1.20;;;;;;;22.48;33.94;98727.00;4489515;31;20512;-82
2022/09/02 08:45:49;;;;;;;7.50;1.30;;;;;;;22.67;33.28;98725.91;4489560;31;20134;-82
2022/09/02 08:48:21;;;;;;;4.15;1.10;;;;;;;22.45;34.60;98725.47;4489553;31;20088;-82
2022/09/02 08:50:48;;;;;;;3.78;1.20;;;;;;;22.71;33.33;98716.50;4489546;31;20080;-82
2022/09/02 08:53:18;;;;;;;4.25;1.23;;;;;;;22.85;33.45;98709.66;4489507;31;20373;-82
2022/09/02 08:55:49;;;;;;;4.37;1.25;;;;;;;23.34;32.93;98710.59;4503643;31;20164;-82
2022/09/02 08:58:18;;;;;;;5.20;1.40;;;;;;;23.08;32.76;98729.56;4504035;31;20088;-82
2022/09/02 09:00:45;;;;;;;5.93;1.33;;;;;;;22.93;32.34;98715.91;4503851;31;20123;-82
2022/09/02 09:03:24;;;;;;;5.12;1.27;;;;;;;23.25;32.41;98708.09;4489493;31;20144;-82
2022/09/02 09:06:02;;;;;;;4.78;1.40;;;;;;;22.87;33.14;98721.06;4489509;31;20157;-82
2022/09/02 09:08:54;;;;;;;5.05;1.50;;;;;;;23.16;33.26;98710.78;4503923;31;20143;-82
2022/09/02 09:11:32;;;;;;;3.37;1.12;;;;;;;23.40;31.95;98713.66;4489438;31;20476;-82
2022/09/02 09:14:26;;;;;;;6.43;1.52;;;;;;;23.45;32.28;98717.50;4503616;31;20108;-82
2022/09/02 09:16:59;;;;;;;6.75;1.35;;;;;;;22.88;33.39;98718.22;4503133;31;20080;-82
2022/09/02 09:19:49;;;;;;;5.80;1.40;;;;;;;23.18;33.23;98713.28;4503695;31;20075;-82
2022/09/02 09:22:18;;;;;;;5.07;1.60;;;;;;;23.28;32.41;98707.75;4503679;31;20072;-82
2022/09/02 09:24:48;;;;;;;5.68;1.40;;;;;;;23.46;32.40;98704.91;4489221;31;20134;-82
2022/09/02 09:27:17;;;;;;;4.72;1.20;;;;;;;23.65;31.92;98717.16;4476083;31;20104;-82
2022/09/02 09:29:43;;;;;;;4.43;1.48;;;;;;;23.26;32.73;98713.28;4489400;31;20079;-82
2022/09/02 09:32:25;;;;;;;4.60;1.55;;;;;;;23.37;33.35;98714.78;4489415;31;20107;-82
2022/09/02 09:34:50;;;;;;;3.75;1.20;;;;;;;23.15;32.39;98708.25;4489239;31;20169;-82
2022/09/02 09:37:39;;;;;;;4.93;1.55;;;;;;;23.20;32.80;98703.22;4503591;31;20088;-82
2022/09/02 09:40:16;;;;;;;4.22;1.35;;;;;;;23.00;33.53;98716.06;4503000;31;20076;-82
2022/09/02 09:42:42;;;;;;;3.22;1.30;;;;;;;22.69;33.39;98713.13;4503538;31;20107;-82
2022/09/02 09:45:36;;;;;;;4.40;1.40;;;;;;;23.16;32.89;98707.25;4489120;31;20152;-82
2022/09/02 09:48:29;;;;;;;5.50;1.45;;;;;;;23.19;32.53;98711.44;4489293;31;20108;-82
2022/09/02 09:50:54;;;;;;;5.45;1.77;;;;;;;23.16;33.29;98702.72;4503527;31;20091;-82
2022/09/02 09:53:26;;;;;;;6.25;1.52;;;;;;;22.68;33.48;98696.19;4503284;31;20451;-82
2022/09/02 09:56:01;;;;;;;4.97;1.40;;;;;;;22.63;34.38;98695.00;4488885;31;20425;-82
2022/09/02 09:58:33;;;;;;;5.45;1.62;;;;;;;22.96;33.34;98695.91;4503570;31;20450;-82
2022/09/02 10:01:27;;;;;;;7.40;1.83;;;;;;;23.13;33.28;98678.84;4489115;31;20096;-82
2022/09/02 10:03:55;;;;;;;5.47;1.62;;;;;;;23.65;32.38;98688.41;4503351;31;20100;-82
2022/09/02 10:06:30;;;;;;;5.85;1.70;;;;;;;23.53;32.38;98685.25;4503337;31;20095;-82
2022/09/02 10:09:01;;;;;;;6.40;1.67;;;;;;;23.35;33.22;98704.25;4503377;31;20088;-82
2022/09/02 10:11:29;;;;;;;7.45;1.52;;;;;;;23.45;32.54;98685.25;4503384;31;20088;-82
2022/09/02 10:14:00;;;;;;;6.47;1.50;;;;;;;23.83;32.58;98687.41;4503146;31;20363;-82
2022/09/02 10:16:47;;;;;;;6.15;1.48;;;;;;;23.94;32.40;98687.88;4489091;31;20122;-82
2022/09/02 10:19:40;;;;;;;5.72;1.62;;;;;;;24.11;32.32;98685.16;4503243;31;20507;-82
2022/09/02 10:22:36;;;;;;;5.30;1.60;;;;;;;24.55;31.10;98686.53;4503600;31;20072;-82
2022/09/02 10:25:25;;;;;;;4.57;1.40;;;;;;;24.67;31.13;98679.75;4503672;31;20526;-83
2022/09/02 10:28:03;;;;;;;6.12;1.30;;;;;;;24.98;30.87;98684.28;4503266;31;20119;-82
2022/09/02 10:30:33;;;;;;;4.50;1.45;;;;;;;25.27;30.37;98684.41;4503187;31;20087;-82
2022/09/02 10:33:11;;;;;;;5.62;1.50;;;;;;;24.70;31.19;98687.47;4503216;31;20127;-82
2022/09/02 10:35:44;;;;;;;;;;;;;;;24.85;30.49;98692.94;4489087;31;20135;-82
2022/09/02 10:38:31;;;;;;;7.70;1.55;;;;;;;25.40;30.40;98683.81;4475761;31;19987;-83
2022/09/02 10:41:05;;;;;;;8.75;1.60;;;;;;;25.47;29.76;98686.62;4503188;31;20110;-83
2022/09/02 10:44:02;;;;;;;5.32;1.60;;;;;;;25.24;29.90;98695.56;4503173;31;20151;-82
2022/09/02 10:46:34;;;;;;;5.45;1.58;;;;;;;25.28;29.42;98696.03;4488652;31;20449;-83
2022/09/02 10:49:12;;;;;;;5.43;1.50;;;;;;;25.34;30.32;98691.78;4488716;31;20119;-82
2022/09/02 10:52:00;;;;;;;6.60;1.60;;;;;;;25.40;30.28;98689.22;4503214;31;20087;-82
2022/09/02 10:54:31;;;;;;;5.53;1.40;;;;;;;25.49;29.24;98690.78;4488749;31;20547;-82
2022/09/02 10:57:03;;;;;;;5.15;1.50;;;;;;;25.88;29.40;98678.12;4502882;31;20151;-82
2022/09/02 10:59:42;;;;;;;5.55;1.70;;;;;;;25.48;29.63;98685.59;4488752;31;20100;-82
2022/09/02 11:02:14;;;;;;;6.57;1.40;;;;;;;25.91;29.59;98683.19;4488701;31;20100;-82
2022/09/02 11:04:47;;;;;;;6.07;1.50;;;;;;;26.03;29.50;98688.97;4502914;31;20473;-82
2022/09/02 11:07:21;;;;;;;6.82;1.67;;;;;;;25.24;30.13;98695.56;4503008;31;20470;-83
2022/09/02 11:09:59;;;;;;;6.05;1.60;;;;;;;25.30;28.94;98685.91;4488706;31;20108;-83
2022/09/02 11:12:53;;;;;;;;;;;;;;;25.66;29.41;98694.19;4488875;31;20519;-83
2022/09/02 11:15:51;;;;;;;7.18;1.83;;;;;;;25.97;29.24;98684.31;4489134;31;19979;-82
2022/09/02 11:18:22;;;;;;;6.05;1.80;;;;;;;25.64;29.90;98684.63;4502010;31;20081;-83
2022/09/02 11:20:56;;;;;;;4.28;1.50;;;;;;;26.09;29.69;98677.44;4502790;31;20545;-83
2022/09/02 11:23:30;;;;;;;4.95;1.52;;;;;;;25.84;30.00;98682.22;4502883;31;20455;-83
2022/09/02 11:26:37;;;;;;;6.62;1.48;;;;;;;26.01;29.38;98675.66;4502936;31;20109;-82
2022/09/02 11:29:17;;;;;;;5.37;1.52;;;;;;;25.35;30.05;98677.28;4502832;31;20471;-83
2022/09/02 11:31:47;;;;;;;5.85;1.60;;;;;;;25.82;28.90;98676.16;4488785;31;20114;-82
2022/09/02 11:34:18;;;;;;;7.45;1.77;;;;;;;25.90;29.29;98676.06;4488748;31;20092;-82
2022/09/02 11:36:44;;;;;;;5.30;1.70;;;;;;;25.41;29.44;98680.09;4488438;31;20092;-82
2022/09/02 11:39:14;;;;;;;4.62;1.50;;;;;;;26.08;29.09;98660.41;4488377;31;20072;-82
2022/09/02 11:41:53;;;;;;;5.03;1.37;;;;;;;25.71;28.89;98666.69;4502683;31;20446;-83
2022/09/02 11:44:49;;;;;;;5.28;1.60;;;;;;;25.33;29.30;98663.97;4502721;31;20075;-82